Time;durP1;ratioP1;P1;durP2;ratioP2;P2;SDS_P1;SDS_P2;PMS_P1;PMS_P2;Temp;Humidity;BMP_temperature;BMP_pressure;BME280_temperature;BME280_humidity;BME280_pressure;Samples;Min_cycle;Max_cycle;Signal;HPM_P1;HPM_P2
2021/09/18 00:00:46;;;;;;;37.72;33.80;;;16.50;99.90;;;;;;2062869;28;20030;-70
2021/09/18 00:01:46;;;;;;;37.05;33.20;;;16.50;99.90;;;;;;2069455;28;20105;-70
2021/09/18 00:02:47;;;;;;;35.22;31.67;;;16.50;99.90;;;;;;2071567;28;20034;-70
2021/09/18 00:03:47;;;;;;;36.22;32.42;;;16.50;99.90;;;;;;2069090;28;20038;-70
2021/09/18 00:04:48;;;;;;;36.40;32.70;;;16.50;99.90;;;;;;2063638;28;20101;-70
2021/09/18 00:05:49;;;;;;;40.45;36.15;;;16.50;99.90;;;;;;2063874;28;20030;-70
2021/09/18 00:06:49;;;;;;;43.08;38.80;;;16.50;99.90;;;;;;2063508;28;20407;-70
2021/09/18 00:07:50;;;;;;;40.40;36.22;;;16.50;99.90;;;;;;2063326;28;20038;-70
2021/09/18 00:08:50;;;;;;;38.72;34.60;;;16.50;99.90;;;;;;2063043;28;20029;-70
2021/09/18 00:09:51;;;;;;;40.10;35.83;;;16.40;99.90;;;;;;2063521;28;20023;-70
2021/09/18 00:10:52;;;;;;;40.13;35.80;;;16.40;99.90;;;;;;2063657;28;20429;-70
2021/09/18 00:11:52;;;;;;;40.25;35.88;;;16.40;99.90;;;;;;2063370;28;20028;-70
2021/09/18 00:12:53;;;;;;;37.90;33.97;;;16.40;99.90;;;;;;2063518;28;20114;-70
2021/09/18 00:13:53;;;;;;;40.20;36.10;;;16.40;99.90;;;;;;2063488;28;20043;-70
2021/09/18 00:14:54;;;;;;;41.30;36.85;;;16.40;99.90;;;;;;2063473;28;20362;-70
2021/09/18 00:15:55;;;;;;;36.85;32.92;;;16.40;99.90;;;;;;2070093;28;20418;-70
2021/09/18 00:16:55;;;;;;;41.33;36.85;;;16.40;99.90;;;;;;2071675;28;20036;-70
2021/09/18 00:17:58;;;;;;;37.55;33.53;;;16.40;99.90;;;;;;2071374;28;20072;-70
2021/09/18 00:18:59;;;;;;;39.80;35.53;;;16.40;99.90;;;;;;2062771;28;20033;-70
2021/09/18 00:20:01;;;;;;;37.28;33.33;;;16.40;99.90;;;;;;2063299;28;20030;-70
2021/09/18 00:21:02;;;;;;;39.03;35.10;;;16.40;99.90;;;;;;2063661;28;20077;-70
2021/09/18 00:22:03;;;;;;;39.45;35.55;;;16.40;99.90;;;;;;2063030;28;20026;-70
2021/09/18 00:23:04;;;;;;;40.42;36.10;;;16.40;99.90;;;;;;2063356;28;20030;-70
2021/09/18 00:24:05;;;;;;;38.80;34.60;;;16.40;99.90;;;;;;2063439;28;20101;-70
2021/09/18 00:25:06;;;;;;;39.72;35.75;;;16.30;99.90;;;;;;2063431;28;20096;-70
2021/09/18 00:26:07;;;;;;;37.20;33.45;;;16.30;99.90;;;;;;2063309;28;20027;-70
2021/09/18 00:27:07;;;;;;;38.65;34.60;;;16.30;99.90;;;;;;2063196;28;20097;-70
2021/09/18 00:28:08;;;;;;;37.03;33.20;;;16.30;99.90;;;;;;2062933;28;20046;-70
2021/09/18 00:29:08;;;;;;;36.85;32.85;;;16.30;99.90;;;;;;2063229;28;20041;-70
2021/09/18 00:30:09;;;;;;;40.13;36.03;;;16.30;99.90;;;;;;2070888;28;20033;-70
2021/09/18 00:31:10;;;;;;;41.45;37.10;;;16.30;99.90;;;;;;2070250;28;20022;-70
2021/09/18 00:32:10;;;;;;;40.00;35.78;;;16.30;99.90;;;;;;2063332;28;20165;-70
2021/09/18 00:33:11;;;;;;;40.92;36.42;;;16.30;99.90;;;;;;2063302;28;20030;-70
2021/09/18 00:34:11;;;;;;;42.40;37.90;;;16.40;99.90;;;;;;2063607;28;20097;-70
2021/09/18 00:35:12;;;;;;;38.72;34.72;;;16.40;99.90;;;;;;2070946;28;20020;-70
2021/09/18 00:36:13;;;;;;;41.75;37.35;;;16.30;99.90;;;;;;2071238;28;20029;-70
2021/09/18 00:37:13;;;;;;;42.70;38.25;;;16.40;99.90;;;;;;2071596;28;20048;-70
2021/09/18 00:38:14;;;;;;;41.85;37.50;;;16.30;99.90;;;;;;2074697;28;20968;-70
2021/09/18 00:39:15;;;;;;;36.50;32.83;;;16.40;99.90;;;;;;2075103;28;20029;-70
2021/09/18 00:40:16;;;;;;;41.08;36.75;;;16.40;99.90;;;;;;2070951;28;20060;-70
2021/09/18 00:41:17;;;;;;;42.15;37.40;;;16.40;99.90;;;;;;2071380;28;20489;-70
2021/09/18 00:42:17;;;;;;;39.00;34.90;;;16.40;99.90;;;;;;2070490;28;20097;-70
2021/09/18 00:43:18;;;;;;;42.00;37.83;;;16.40;99.90;;;;;;2068630;28;20109;-70
2021/09/18 00:44:19;;;;;;;38.92;34.85;;;16.40;99.90;;;;;;2068218;28;20497;-70
2021/09/18 00:45:20;;;;;;;43.60;38.90;;;16.40;99.90;;;;;;2063521;28;20583;-70
2021/09/18 00:46:22;;;;;;;39.45;35.55;;;16.40;99.90;;;;;;2063459;28;20447;-70
2021/09/18 00:47:22;;;;;;;38.30;34.40;;;16.40;99.90;;;;;;2063315;28;20459;-70
2021/09/18 00:48:23;;;;;;;41.58;37.20;;;16.40;99.90;;;;;;2062706;28;20789;-70
2021/09/18 00:49:24;;;;;;;42.88;38.40;;;16.40;99.90;;;;;;2062846;28;20542;-70
2021/09/18 00:50:25;;;;;;;41.60;36.75;;;16.40;99.90;;;;;;2063341;28;20033;-70
2021/09/18 00:51:26;;;;;;;42.15;37.85;;;16.40;99.90;;;;;;2063248;28;20066;-70
2021/09/18 00:52:27;;;;;;;40.50;36.30;;;16.50;99.90;;;;;;2066669;28;20045;-70
2021/09/18 00:53:30;;;;;;;45.42;38.90;;;16.50;99.90;;;;;;2071302;28;20030;-70
2021/09/18 00:54:30;;;;;;;42.10;37.70;;;16.50;99.90;;;;;;2070948;28;20425;-70
2021/09/18 00:55:31;;;;;;;41.60;37.35;;;16.50;99.90;;;;;;2071450;28;20120;-70
2021/09/18 00:56:32;;;;;;;40.17;36.10;;;16.50;99.90;;;;;;2071287;28;20075;-70
2021/09/18 00:57:33;;;;;;;35.92;32.13;;;16.50;99.90;;;;;;2068997;28;20072;-70
2021/09/18 00:58:34;;;;;;;31.33;27.92;;;16.50;99.90;;;;;;2070993;28;20033;-70
2021/09/18 00:59:34;;;;;;;35.53;31.88;;;16.50;99.90;;;;;;2070485;28;20077;-70
2021/09/18 01:00:35;;;;;;;37.58;33.60;;;16.50;99.90;;;;;;2071818;28;20394;-70
2021/09/18 01:01:35;;;;;;;39.90;35.75;;;16.50;99.90;;;;;;2071346;28;20129;-70
2021/09/18 01:02:36;;;;;;;38.03;34.03;;;16.50;99.90;;;;;;2071358;28;20044;-69
2021/09/18 01:03:37;;;;;;;42.42;38.13;;;16.50;99.90;;;;;;2071498;28;20034;-69
2021/09/18 01:04:38;;;;;;;39.58;35.63;;;16.50;99.90;;;;;;2071217;28;20100;-69
2021/09/18 01:05:39;;;;;;;42.40;37.97;;;16.50;99.90;;;;;;2065767;28;20033;-70
2021/09/18 01:06:40;;;;;;;41.90;37.33;;;16.50;99.90;;;;;;2063442;28;20033;-69
2021/09/18 01:07:41;;;;;;;41.65;37.47;;;16.60;99.90;;;;;;2063158;28;20033;-69
2021/09/18 01:08:42;;;;;;;46.92;41.85;;;16.50;99.90;;;;;;2060924;28;20031;-69
2021/09/18 01:09:44;;;;;;;44.38;39.63;;;16.60;99.90;;;;;;2072226;28;20113;-69
2021/09/18 01:10:44;;;;;;;43.80;39.22;;;16.50;99.90;;;;;;2065477;28;20034;-69
2021/09/18 01:11:45;;;;;;;42.63;38.00;;;16.60;99.90;;;;;;2072214;28;20100;-69
2021/09/18 01:13:00;;;;;;;43.90;39.17;;;16.60;99.90;;;;;;2072723;28;20083;-69
2021/09/18 01:14:00;;;;;;;38.05;33.30;;;16.50;99.90;;;;;;2070203;28;20026;-69
2021/09/18 01:15:01;;;;;;;38.45;34.45;;;16.50;99.90;;;;;;2072691;28;20087;-70
2021/09/18 01:16:01;;;;;;;36.35;32.55;;;16.50;99.90;;;;;;2073184;28;20077;-70
2021/09/18 01:17:02;;;;;;;39.08;34.90;;;16.50;99.90;;;;;;2067438;28;20077;-69
2021/09/18 01:18:04;;;;;;;36.35;32.53;;;16.50;99.90;;;;;;2065039;28;20026;-69
2021/09/18 01:19:05;;;;;;;38.65;34.67;;;16.50;99.90;;;;;;2064684;28;20019;-69
2021/09/18 01:20:06;;;;;;;36.30;32.78;;;16.60;99.90;;;;;;2065576;28;20525;-69
2021/09/18 01:21:10;;;;;;;38.17;34.33;;;16.50;99.90;;;;;;2072652;28;20025;-69
2021/09/18 01:22:11;;;;;;;37.28;33.60;;;16.50;99.90;;;;;;2073058;28;20026;-69
2021/09/18 01:23:22;;;;;;;40.90;36.60;;;16.50;99.90;;;;;;2069420;28;20056;-70
2021/09/18 01:24:22;;;;;;;41.97;37.63;;;16.50;99.90;;;;;;2071940;28;20025;-69
2021/09/18 01:25:28;;;;;;;41.38;37.28;;;16.50;99.90;;;;;;2069941;28;20040;-70
2021/09/18 01:26:38;;;;;;;38.38;34.35;;;16.50;99.90;;;;;;2071639;28;20470;-70
2021/09/18 01:27:38;;;;;;;41.22;36.88;;;16.50;99.90;;;;;;2071942;28;20030;-69
2021/09/18 01:28:40;;;;;;;40.13;35.90;;;16.50;99.90;;;;;;2064301;28;20040;-69
2021/09/18 01:29:43;;;;;;;37.47;33.78;;;16.50;99.90;;;;;;2064340;28;20034;-69
2021/09/18 01:30:44;;;;;;;36.90;33.05;;;16.40;99.90;;;;;;2064806;28;20036;-69
2021/09/18 01:31:47;;;;;;;38.83;34.67;;;16.50;99.90;;;;;;2064576;28;20502;-69
2021/09/18 01:32:48;;;;;;;40.30;35.97;;;16.50;99.90;;;;;;2064907;28;20034;-69
2021/09/18 01:33:50;;;;;;;37.88;33.80;;;16.50;99.90;;;;;;2068781;28;20100;-69
2021/09/18 01:34:51;;;;;;;38.40;34.33;;;16.50;99.90;;;;;;2064648;28;20118;-69
2021/09/18 01:35:51;;;;;;;43.35;38.67;;;16.40;99.90;;;;;;2064546;28;20103;-69
2021/09/18 01:36:52;;;;;;;40.05;35.78;;;16.40;99.90;;;;;;2064857;28;20479;-69
2021/09/18 01:37:54;;;;;;;38.20;33.70;;;16.40;99.90;;;;;;2065697;28;20080;-69
2021/09/18 01:38:54;;;;;;;36.15;32.42;;;16.50;99.90;;;;;;2063953;28;20069;-69
2021/09/18 01:39:55;;;;;;;39.67;35.67;;;16.50;99.90;;;;;;2070225;28;20034;-70
2021/09/18 01:40:55;;;;;;;40.67;35.72;;;16.40;99.90;;;;;;2072771;28;20026;-69
2021/09/18 01:41:56;;;;;;;39.72;35.60;;;16.40;99.90;;;;;;2072494;28;20437;-69
2021/09/18 01:42:57;;;;;;;42.50;38.17;;;16.40;99.90;;;;;;2073207;28;20033;-69
2021/09/18 01:43:59;;;;;;;41.67;36.38;;;16.40;99.90;;;;;;2068803;28;20394;-69
2021/09/18 01:44:59;;;;;;;41.55;36.92;;;16.40;99.90;;;;;;2064761;28;20022;-69
2021/09/18 01:46:00;;;;;;;40.72;36.38;;;16.40;99.90;;;;;;2064657;28;20037;-69
2021/09/18 01:47:00;;;;;;;41.65;37.25;;;16.40;99.90;;;;;;2064784;28;20035;-69
2021/09/18 01:48:07;;;;;;;43.25;38.58;;;16.40;99.90;;;;;;2064654;28;20033;-69
2021/09/18 01:49:12;;;;;;;38.90;34.75;;;16.40;99.90;;;;;;2064594;28;20022;-70
2021/09/18 01:50:30;;;;;;;44.03;39.22;;;16.40;99.90;;;;;;2064757;28;20022;-69
2021/09/18 01:51:37;;;;;;;43.63;37.85;;;16.40;99.90;;;;;;2064603;28;20113;-69
2021/09/18 01:52:38;;;;;;;43.88;39.20;;;16.40;99.90;;;;;;2063762;28;20096;-69
2021/09/18 01:53:39;;;;;;;40.97;36.78;;;16.40;99.90;;;;;;2064858;28;20026;-69
2021/09/18 01:54:39;;;;;;;42.67;38.05;;;16.40;99.90;;;;;;2072526;28;20537;-70
2021/09/18 01:55:41;;;;;;;43.00;38.42;;;16.40;99.90;;;;;;2071974;28;20022;-69
2021/09/18 01:56:41;;;;;;;38.15;34.00;;;16.40;99.90;;;;;;2065484;28;20014;-69
2021/09/18 01:57:47;;;;;;;41.10;36.83;;;16.40;99.90;;;;;;2064578;28;20053;-70
2021/09/18 01:58:49;;;;;;;37.05;33.20;;;16.40;99.90;;;;;;2063839;28;20034;-69
2021/09/18 01:59:50;;;;;;;37.80;33.92;;;16.40;99.90;;;;;;2064847;28;20026;-69
2021/09/18 02:00:53;;;;;;;41.50;37.00;;;16.40;99.90;;;;;;2065114;28;20034;-69
2021/09/18 02:01:54;;;;;;;41.17;36.88;;;16.40;99.90;;;;;;2065653;28;20426;-69
2021/09/18 02:02:55;;;;;;;41.58;37.08;;;16.40;99.90;;;;;;2065652;28;20034;-69
2021/09/18 02:03:56;;;;;;;41.45;37.03;;;16.40;99.90;;;;;;2068843;28;20038;-69
2021/09/18 02:04:56;;;;;;;41.50;37.25;;;16.40;99.90;;;;;;2081444;28;20096;-69
2021/09/18 02:05:57;;;;;;;38.70;34.70;;;16.40;99.90;;;;;;2078680;28;20080;-69
2021/09/18 02:06:57;;;;;;;37.83;33.90;;;16.40;99.90;;;;;;2065902;28;20097;-69
2021/09/18 02:07:58;;;;;;;37.20;33.42;;;16.40;99.90;;;;;;2066000;28;20056;-69
2021/09/18 02:08:59;;;;;;;39.70;35.55;;;16.40;99.90;;;;;;2065216;28;20030;-69
2021/09/18 02:10:00;;;;;;;42.28;37.78;;;16.40;99.90;;;;;;2066006;28;20154;-69
2021/09/18 02:11:00;;;;;;;40.58;36.35;;;16.40;99.90;;;;;;2065711;28;20041;-69
2021/09/18 02:12:01;;;;;;;40.92;36.63;;;16.40;99.90;;;;;;2065990;28;20022;-69
2021/09/18 02:13:05;;;;;;;40.10;35.67;;;16.40;99.90;;;;;;2065613;28;20030;-69
2021/09/18 02:14:05;;;;;;;41.50;37.13;;;16.30;99.90;;;;;;2069681;28;20026;-69
2021/09/18 02:15:08;;;;;;;43.83;39.22;;;16.30;99.90;;;;;;2073623;28;20492;-69
2021/09/18 02:16:09;;;;;;;38.72;34.78;;;16.30;99.90;;;;;;2066764;28;20493;-69
2021/09/18 02:17:09;;;;;;;41.83;37.33;;;16.40;99.90;;;;;;2067217;28;20393;-69
2021/09/18 02:18:10;;;;;;;44.03;39.35;;;16.30;99.90;;;;;;2065427;28;20747;-70
2021/09/18 02:19:11;;;;;;;43.97;37.55;;;16.40;99.90;;;;;;2065105;28;20019;-70
2021/09/18 02:20:14;;;;;;;42.53;38.13;;;16.30;99.90;;;;;;2064783;28;20014;-69
2021/09/18 02:21:15;;;;;;;42.75;38.00;;;16.30;99.90;;;;;;2064190;28;20061;-70
2021/09/18 02:22:16;;;;;;;35.55;31.95;;;16.30;99.90;;;;;;2065597;28;20082;-69
2021/09/18 02:23:16;;;;;;;36.60;32.83;;;16.30;99.90;;;;;;2065851;28;20050;-69
2021/09/18 02:24:17;;;;;;;38.28;34.38;;;16.40;99.90;;;;;;2070830;28;20024;-70
2021/09/18 02:25:18;;;;;;;39.83;35.58;;;16.40;99.90;;;;;;2073858;28;20026;-69
2021/09/18 02:26:18;;;;;;;40.85;36.60;;;16.30;99.90;;;;;;2073826;28;20530;-69
2021/09/18 02:27:19;;;;;;;41.53;37.35;;;16.30;99.90;;;;;;2068026;28;20505;-69
2021/09/18 02:28:19;;;;;;;41.42;36.95;;;16.30;99.90;;;;;;2064295;28;20085;-69
2021/09/18 02:29:20;;;;;;;41.95;37.65;;;16.30;99.90;;;;;;2065858;28;20382;-70
2021/09/18 02:30:23;;;;;;;43.97;39.42;;;16.30;99.90;;;;;;2065640;28;20018;-70
2021/09/18 02:31:24;;;;;;;35.30;31.67;;;16.30;99.90;;;;;;2065299;28;20041;-70
2021/09/18 02:32:24;;;;;;;35.33;31.60;;;16.30;99.90;;;;;;2064788;28;20029;-69
2021/09/18 02:33:25;;;;;;;37.42;33.65;;;16.30;99.90;;;;;;2065749;28;20023;-69
2021/09/18 02:34:25;;;;;;;40.58;36.40;;;16.30;99.90;;;;;;2071920;28;20033;-69
2021/09/18 02:35:27;;;;;;;41.20;36.45;;;16.30;99.90;;;;;;2081291;28;20032;-69
2021/09/18 02:36:28;;;;;;;39.58;35.53;;;16.30;99.90;;;;;;2080836;28;20377;-69
2021/09/18 02:37:28;;;;;;;41.42;37.08;;;16.40;99.90;;;;;;2065814;28;20030;-70
2021/09/18 02:38:29;;;;;;;35.53;31.67;;;16.30;99.90;;;;;;2064977;28;20450;-70
2021/09/18 02:39:30;;;;;;;37.35;33.47;;;16.30;99.90;;;;;;2065853;28;20041;-70
2021/09/18 02:40:31;;;;;;;37.50;33.65;;;16.30;99.90;;;;;;2065646;28;20034;-69
2021/09/18 02:41:32;;;;;;;38.85;34.85;;;16.40;99.90;;;;;;2073880;28;20026;-69
2021/09/18 02:42:33;;;;;;;42.33;37.25;;;16.30;99.90;;;;;;2073707;28;20034;-69
2021/09/18 02:43:34;;;;;;;40.15;36.00;;;16.30;99.90;;;;;;2073919;28;20386;-69
2021/09/18 02:44:34;;;;;;;40.30;36.15;;;16.30;99.90;;;;;;2066157;28;20034;-69
2021/09/18 02:45:35;;;;;;;41.35;36.95;;;16.30;99.90;;;;;;2065723;28;20113;-70
2021/09/18 02:46:36;;;;;;;42.55;37.88;;;16.30;99.90;;;;;;2065735;28;20073;-69
2021/09/18 02:47:37;;;;;;;40.63;36.28;;;16.30;99.90;;;;;;2065613;28;20034;-69
2021/09/18 02:48:37;;;;;;;36.58;32.88;;;16.30;99.90;;;;;;2064902;28;20038;-69
2021/09/18 02:49:38;;;;;;;41.30;36.90;;;16.30;99.90;;;;;;2065846;28;20058;-69
2021/09/18 02:50:38;;;;;;;41.83;37.28;;;16.30;99.90;;;;;;2065223;28;20391;-70
2021/09/18 02:51:39;;;;;;;43.25;38.58;;;16.30;99.90;;;;;;2073030;28;20022;-70
2021/09/18 02:52:40;;;;;;;43.35;38.75;;;16.30;99.90;;;;;;2064693;28;20030;-69
2021/09/18 02:53:40;;;;;;;41.58;37.28;;;16.30;99.90;;;;;;2064972;28;20018;-69
2021/09/18 02:54:41;;;;;;;44.50;39.75;;;16.30;99.90;;;;;;2073440;28;20533;-69
2021/09/18 02:55:41;;;;;;;42.75;38.20;;;16.30;99.90;;;;;;2073490;28;20486;-70
2021/09/18 02:56:42;;;;;;;43.40;38.70;;;16.30;99.90;;;;;;2073734;28;20014;-69
2021/09/18 02:57:43;;;;;;;44.10;39.50;;;16.20;99.90;;;;;;2065696;28;20026;-69
2021/09/18 02:58:44;;;;;;;39.67;35.45;;;16.20;99.90;;;;;;2064943;28;20054;-69
2021/09/18 02:59:44;;;;;;;36.83;32.85;;;16.20;99.90;;;;;;2064761;28;20478;-69
2021/09/18 03:00:45;;;;;;;37.67;33.67;;;16.20;99.90;;;;;;2064780;28;20038;-70
2021/09/18 03:01:45;;;;;;;39.53;34.88;;;16.20;99.90;;;;;;2064584;28;20482;-70
2021/09/18 03:02:46;;;;;;;38.72;34.70;;;16.20;99.90;;;;;;2064628;28;20109;-69
2021/09/18 03:03:47;;;;;;;38.00;34.05;;;16.20;99.90;;;;;;2063838;28;20026;-70
2021/09/18 03:04:47;;;;;;;43.10;38.60;;;16.20;99.90;;;;;;2071999;28;20421;-70
2021/09/18 03:05:48;;;;;;;39.13;34.92;;;16.20;99.90;;;;;;2063698;28;20027;-70
2021/09/18 03:06:48;;;;;;;40.17;35.75;;;16.20;99.90;;;;;;2067446;28;20474;-70
2021/09/18 03:07:49;;;;;;;43.20;38.63;;;16.20;99.90;;;;;;2072678;28;20037;-70
2021/09/18 03:08:49;;;;;;;44.58;38.85;;;16.20;99.90;;;;;;2067910;28;20090;-70
2021/09/18 03:09:50;;;;;;;44.00;39.20;;;16.10;99.90;;;;;;2072399;28;20018;-70
2021/09/18 03:10:51;;;;;;;40.05;35.75;;;16.10;99.90;;;;;;2072252;28;20022;-70
2021/09/18 03:11:52;;;;;;;40.53;36.13;;;16.20;99.90;;;;;;2067242;28;20022;-70
2021/09/18 03:12:53;;;;;;;37.80;33.85;;;16.10;99.90;;;;;;2072650;28;20025;-70
2021/09/18 03:13:53;;;;;;;42.80;37.67;;;16.10;99.90;;;;;;2065171;28;20037;-70
2021/09/18 03:14:54;;;;;;;45.90;37.45;;;16.10;99.90;;;;;;2072243;28;20462;-70
2021/09/18 03:15:54;;;;;;;43.42;38.92;;;16.10;99.90;;;;;;2072330;28;20030;-69
2021/09/18 03:16:55;;;;;;;48.15;43.15;;;16.00;99.90;;;;;;2065844;28;20031;-69
2021/09/18 03:17:57;;;;;;;43.28;38.58;;;16.10;99.90;;;;;;2067228;28;20417;-69
2021/09/18 03:18:58;;;;;;;38.25;34.15;;;16.10;99.90;;;;;;2071836;28;20018;-69
2021/09/18 03:19:58;;;;;;;37.38;33.50;;;16.00;99.90;;;;;;2068650;28;20041;-69
2021/09/18 03:20:59;;;;;;;40.90;36.55;;;16.00;99.90;;;;;;2072208;28;20022;-69
2021/09/18 03:22:00;;;;;;;43.80;38.80;;;16.00;99.90;;;;;;2064155;28;20031;-69
2021/09/18 03:23:01;;;;;;;44.47;39.65;;;16.00;99.90;;;;;;2064002;28;20033;-69
2021/09/18 03:24:02;;;;;;;44.97;39.90;;;16.00;99.90;;;;;;2065877;28;20550;-69
2021/09/18 03:25:04;;;;;;;39.95;35.75;;;16.00;99.90;;;;;;2072197;28;20022;-70
2021/09/18 03:26:05;;;;;;;47.08;41.00;;;16.00;99.90;;;;;;2070035;28;20190;-70
2021/09/18 03:27:06;;;;;;;44.67;39.88;;;16.00;99.90;;;;;;2063934;28;20090;-70
2021/09/18 03:28:06;;;;;;;47.85;40.65;;;16.00;99.90;;;;;;2063439;28;20022;-70
2021/09/18 03:29:07;;;;;;;44.50;39.17;;;16.00;99.90;;;;;;2063751;28;20046;-70
2021/09/18 03:30:08;;;;;;;44.88;39.78;;;16.00;99.90;;;;;;2064323;28;21073;-69
2021/09/18 03:31:09;;;;;;;40.83;36.60;;;15.90;99.90;;;;;;2064009;28;20033;-70
2021/09/18 03:32:09;;;;;;;36.40;32.50;;;15.90;99.90;;;;;;2063683;28;20030;-70
2021/09/18 03:33:10;;;;;;;38.88;34.72;;;15.90;99.90;;;;;;2063918;28;20025;-69
2021/09/18 03:34:11;;;;;;;35.65;32.00;;;15.90;99.90;;;;;;2066603;28;20033;-70
2021/09/18 03:35:11;;;;;;;47.60;38.47;;;15.90;99.90;;;;;;2071968;28;21049;-70
2021/09/18 03:36:12;;;;;;;44.28;39.55;;;15.90;99.90;;;;;;2066786;28;20419;-70
2021/09/18 03:37:13;;;;;;;44.10;39.42;;;15.90;99.90;;;;;;2063828;28;20105;-69
2021/09/18 03:38:13;;;;;;;43.85;38.00;;;15.90;99.90;;;;;;2063648;28;20057;-69
2021/09/18 03:39:15;;;;;;;43.45;38.67;;;15.90;99.90;;;;;;2063917;28;20106;-69
2021/09/18 03:40:15;;;;;;;40.90;36.33;;;15.80;99.90;;;;;;2063973;28;20021;-70
2021/09/18 03:41:16;;;;;;;42.90;38.35;;;15.80;99.90;;;;;;2070309;28;20033;-70
2021/09/18 03:42:16;;;;;;;40.75;36.60;;;15.80;99.90;;;;;;2072376;28;20029;-70
2021/09/18 03:43:17;;;;;;;41.35;36.97;;;15.80;99.90;;;;;;2071614;28;20105;-70
2021/09/18 03:44:17;;;;;;;47.22;41.80;;;15.80;99.90;;;;;;2068372;28;20023;-70
2021/09/18 03:45:18;;;;;;;41.42;36.42;;;15.80;99.90;;;;;;2063591;28;20084;-70
2021/09/18 03:46:18;;;;;;;45.97;39.70;;;15.80;99.90;;;;;;2064050;28;20053;-70
2021/09/18 03:47:19;;;;;;;44.17;39.45;;;15.80;99.90;;;;;;2063802;28;20471;-70
2021/09/18 03:48:20;;;;;;;49.72;41.45;;;15.70;99.90;;;;;;2063621;28;20037;-70
2021/09/18 03:49:20;;;;;;;43.80;39.30;;;15.80;99.90;;;;;;2063855;28;20029;-70
2021/09/18 03:50:21;;;;;;;43.13;38.47;;;15.80;99.90;;;;;;2063947;28;20034;-70
2021/09/18 03:51:22;;;;;;;37.03;33.17;;;15.70;99.90;;;;;;2063838;28;20538;-70
2021/09/18 03:52:26;;;;;;;37.85;33.83;;;15.70;99.90;;;;;;2063790;28;20022;-70
2021/09/18 03:53:26;;;;;;;43.75;39.03;;;15.70;99.90;;;;;;2064070;28;20034;-70
2021/09/18 03:54:27;;;;;;;42.28;37.83;;;15.70;99.90;;;;;;2068184;28;20034;-70
2021/09/18 03:55:27;;;;;;;39.08;34.80;;;15.70;99.90;;;;;;2071890;28;20426;-70
2021/09/18 03:56:28;;;;;;;41.83;37.28;;;15.70;99.90;;;;;;2071781;28;20072;-69
2021/09/18 03:57:28;;;;;;;44.22;39.67;;;15.70;99.90;;;;;;2065548;28;20475;-69
2021/09/18 03:58:29;;;;;;;45.28;39.40;;;15.60;99.90;;;;;;2063077;28;20102;-70
2021/09/18 03:59:29;;;;;;;44.50;38.70;;;15.60;99.90;;;;;;2063662;28;20461;-70
2021/09/18 04:00:30;;;;;;;36.90;33.03;;;15.60;99.90;;;;;;2064038;28;20066;-70
2021/09/18 04:01:31;;;;;;;40.17;36.00;;;15.60;99.90;;;;;;2063755;28;20026;-70
2021/09/18 04:02:31;;;;;;;41.22;36.58;;;15.60;99.90;;;;;;2063667;28;20516;-70
2021/09/18 04:03:32;;;;;;;41.67;37.00;;;15.60;99.90;;;;;;2063815;28;20041;-70
2021/09/18 04:04:33;;;;;;;38.08;34.10;;;15.60;99.90;;;;;;2067749;28;20036;-70
2021/09/18 04:05:34;;;;;;;36.83;32.78;;;15.50;99.90;;;;;;2072278;28;20096;-69
2021/09/18 04:06:34;;;;;;;38.72;34.53;;;15.60;99.90;;;;;;2070261;28;20065;-69
2021/09/18 04:07:35;;;;;;;39.13;34.95;;;15.50;99.90;;;;;;2063893;28;20038;-70
2021/09/18 04:08:35;;;;;;;41.17;36.78;;;15.50;99.90;;;;;;2062797;28;20439;-70
2021/09/18 04:09:36;;;;;;;42.05;36.78;;;15.50;99.90;;;;;;2063935;28;20026;-70
2021/09/18 04:10:38;;;;;;;41.20;36.78;;;15.50;99.90;;;;;;2063545;28;20086;-70
2021/09/18 04:11:39;;;;;;;41.17;36.85;;;15.50;99.90;;;;;;2063663;28;20030;-69
2021/09/18 04:12:40;;;;;;;47.05;41.50;;;15.50;99.90;;;;;;2063735;28;20040;-70
2021/09/18 04:13:40;;;;;;;42.42;37.88;;;15.50;99.90;;;;;;2063447;28;20882;-70
2021/09/18 04:14:41;;;;;;;41.30;37.08;;;15.50;99.90;;;;;;2068617;28;20083;-70
2021/09/18 04:15:41;;;;;;;41.47;37.08;;;15.50;99.90;;;;;;2072179;28;20033;-70
2021/09/18 04:16:42;;;;;;;42.50;37.85;;;15.50;99.90;;;;;;2066780;28;20058;-70
2021/09/18 04:17:42;;;;;;;43.63;38.88;;;15.40;99.90;;;;;;2063785;28;20029;-70
2021/09/18 04:18:43;;;;;;;42.08;37.47;;;15.40;99.90;;;;;;2063054;28;20039;-70
2021/09/18 04:19:43;;;;;;;44.13;38.58;;;15.40;99.90;;;;;;2063789;28;20026;-70
2021/09/18 04:20:44;;;;;;;45.40;40.50;;;15.40;99.90;;;;;;2063586;28;20035;-70
2021/09/18 04:21:44;;;;;;;44.45;39.65;;;15.40;99.90;;;;;;2063825;28;20229;-70
2021/09/18 04:22:45;;;;;;;47.47;41.25;;;15.40;99.90;;;;;;2066154;28;20022;-70
2021/09/18 04:23:45;;;;;;;44.95;39.97;;;15.40;99.90;;;;;;2071687;28;20038;-70
2021/09/18 04:24:46;;;;;;;46.17;41.20;;;15.30;99.90;;;;;;2067445;28;20026;-70
2021/09/18 04:25:47;;;;;;;46.63;39.97;;;15.40;99.90;;;;;;2063613;28;20034;-70
2021/09/18 04:26:47;;;;;;;47.85;42.70;;;15.30;99.90;;;;;;2063675;28;20133;-70
2021/09/18 04:27:48;;;;;;;48.47;43.38;;;15.30;99.90;;;;;;2063697;28;20026;-70
2021/09/18 04:28:49;;;;;;;49.05;42.97;;;15.30;99.90;;;;;;2062688;28;20188;-70
2021/09/18 04:29:49;;;;;;;47.85;42.65;;;15.30;99.90;;;;;;2063589;28;20026;-70
2021/09/18 04:30:50;;;;;;;43.00;38.42;;;15.30;99.90;;;;;;2063674;28;20451;-70
2021/09/18 04:31:50;;;;;;;40.03;35.65;;;15.30;99.90;;;;;;2063581;28;20465;-70
2021/09/18 04:32:51;;;;;;;42.22;36.58;;;15.30;99.90;;;;;;2066575;28;20041;-70
2021/09/18 04:33:51;;;;;;;44.63;39.83;;;15.30;99.90;;;;;;2071907;28;20021;-70
2021/09/18 04:34:52;;;;;;;42.53;38.03;;;15.30;99.90;;;;;;2071592;28;20449;-70
2021/09/18 04:35:52;;;;;;;45.72;40.80;;;15.20;99.90;;;;;;2076933;28;20056;-70
2021/09/18 04:36:53;;;;;;;49.78;44.42;;;15.30;99.90;;;;;;2062809;28;20494;-70
2021/09/18 04:37:53;;;;;;;43.95;39.08;;;15.20;99.90;;;;;;2062806;28;20466;-70
2021/09/18 04:38:54;;;;;;;44.03;39.28;;;15.20;99.90;;;;;;2062951;28;20034;-70
2021/09/18 04:39:55;;;;;;;46.72;41.75;;;15.20;99.90;;;;;;2063505;28;20038;-70
2021/09/18 04:40:55;;;;;;;41.63;37.03;;;15.20;99.90;;;;;;2067507;28;20091;-70
2021/09/18 04:41:56;;;;;;;44.20;39.42;;;15.20;99.90;;;;;;2071719;28;20466;-70
2021/09/18 04:42:57;;;;;;;47.65;41.10;;;15.20;99.90;;;;;;2067709;28;20065;-70
2021/09/18 04:43:57;;;;;;;39.88;35.55;;;15.20;99.90;;;;;;2062698;28;20038;-70
2021/09/18 04:44:58;;;;;;;41.22;36.53;;;15.20;99.90;;;;;;2063316;28;20116;-70
2021/09/18 04:45:58;;;;;;;41.28;36.85;;;15.10;99.90;;;;;;2063635;28;20037;-70
2021/09/18 04:46:59;;;;;;;44.13;39.42;;;15.10;99.90;;;;;;2063460;28;20030;-70
2021/09/18 04:47:59;;;;;;;44.55;39.20;;;15.10;99.90;;;;;;2063649;28;20081;-70
2021/09/18 04:49:00;;;;;;;43.25;38.53;;;15.10;99.90;;;;;;2062775;28;20037;-70
2021/09/18 04:50:00;;;;;;;40.55;36.15;;;15.10;99.90;;;;;;2063364;28;20475;-70
2021/09/18 04:51:01;;;;;;;44.80;39.13;;;15.10;99.90;;;;;;2063517;28;20101;-70
2021/09/18 04:52:02;;;;;;;43.22;38.58;;;15.10;99.90;;;;;;2063222;28;20027;-70
2021/09/18 04:53:03;;;;;;;41.40;37.08;;;15.10;99.90;;;;;;2067983;28;20030;-70
2021/09/18 04:54:04;;;;;;;43.03;38.53;;;15.10;99.90;;;;;;2071414;28;20033;-70
2021/09/18 04:55:06;;;;;;;45.80;39.75;;;15.00;99.90;;;;;;2071530;28;20533;-70
2021/09/18 04:56:06;;;;;;;41.22;36.92;;;15.00;99.90;;;;;;2063409;28;20019;-70
2021/09/18 04:57:07;;;;;;;43.58;37.70;;;15.00;99.90;;;;;;2066994;28;20480;-70
2021/09/18 04:58:07;;;;;;;41.38;36.97;;;15.00;99.90;;;;;;2071176;28;20076;-70
2021/09/18 04:59:08;;;;;;;41.20;36.83;;;15.00;99.90;;;;;;2070344;28;20025;-70
2021/09/18 05:00:09;;;;;;;40.47;36.22;;;15.00;99.90;;;;;;2070498;28;20033;-70
2021/09/18 05:01:10;;;;;;;42.53;35.70;;;15.00;99.90;;;;;;2063270;28;20050;-70
2021/09/18 05:02:10;;;;;;;40.33;36.22;;;15.00;99.90;;;;;;2068200;28;20025;-70
2021/09/18 05:03:11;;;;;;;41.22;36.78;;;14.90;99.90;;;;;;2066128;28;20026;-70
2021/09/18 05:04:12;;;;;;;41.13;36.70;;;14.90;99.90;;;;;;2063583;28;20034;-70
2021/09/18 05:05:12;;;;;;;42.85;38.28;;;14.90;99.90;;;;;;2063576;28;20026;-70
2021/09/18 05:06:13;;;;;;;42.03;37.50;;;14.90;99.90;;;;;;2063585;28;20033;-70
2021/09/18 05:07:13;;;;;;;40.50;36.20;;;14.90;99.90;;;;;;2063390;28;20042;-70
2021/09/18 05:08:15;;;;;;;44.45;39.47;;;14.90;99.90;;;;;;2062770;28;20022;-70
2021/09/18 05:09:15;;;;;;;38.40;34.22;;;14.90;99.90;;;;;;2063281;28;20027;-70
2021/09/18 05:10:16;;;;;;;40.42;36.05;;;14.90;99.90;;;;;;2063283;28;20033;-70